sensor_id;sensor_type;location;lat;lon;timestamp;P1;durP1;ratioP1;P2;durP2;ratioP2
35632;SDS011;21754;48.216;-1.628;2023-04-10T00:01:15;2.10;;;1.90;;
35632;SDS011;21754;48.216;-1.628;2023-04-10T00:03:41;4.03;;;1.92;;
35632;SDS011;21754;48.216;-1.628;2023-04-10T00:06:07;4.68;;;1.90;;
35632;SDS011;21754;48.216;-1.628;2023-04-10T00:08:33;1.52;;;1.40;;
35632;SDS011;21754;48.216;-1.628;2023-04-10T00:10:59;1.33;;;1.27;;
35632;SDS011;21754;48.216;-1.628;2023-04-10T00:13:25;4.32;;;2.10;;
35632;SDS011;21754;48.216;-1.628;2023-04-10T00:15:52;1.55;;;1.45;;
35632;SDS011;21754;48.216;-1.628;2023-04-10T00:18:18;3.15;;;1.20;;
35632;SDS011;21754;48.216;-1.628;2023-04-10T00:20:44;1.83;;;1.33;;
35632;SDS011;21754;48.216;-1.628;2023-04-10T00:23:10;1.65;;;1.52;;
35632;SDS011;21754;48.216;-1.628;2023-04-10T00:25:36;1.60;;;1.50;;
35632;SDS011;21754;48.216;-1.628;2023-04-10T00:28:02;3.15;;;1.50;;
35632;SDS011;21754;48.216;-1.628;2023-04-10T00:30:28;5.05;;;2.28;;
35632;SDS011;21754;48.216;-1.628;2023-04-10T00:32:54;3.50;;;1.58;;
35632;SDS011;21754;48.216;-1.628;2023-04-10T00:35:20;4.85;;;1.75;;
35632;SDS011;21754;48.216;-1.628;2023-04-10T00:37:46;1.98;;;1.30;;
35632;SDS011;21754;48.216;-1.628;2023-04-10T00:40:14;3.47;;;1.58;;
35632;SDS011;21754;48.216;-1.628;2023-04-10T00:42:40;3.95;;;1.85;;
35632;SDS011;21754;48.216;-1.628;2023-04-10T00:45:06;1.77;;;1.45;;
35632;SDS011;21754;48.216;-1.628;2023-04-10T00:47:32;2.08;;;1.65;;
35632;SDS011;21754;48.216;-1.628;2023-04-10T00:49:59;1.67;;;1.58;;
35632;SDS011;21754;48.216;-1.628;2023-04-10T00:52:25;1.73;;;1.63;;
35632;SDS011;21754;48.216;-1.628;2023-04-10T00:54:51;1.67;;;1.58;;
35632;SDS011;21754;48.216;-1.628;2023-04-10T00:57:17;1.90;;;1.80;;
35632;SDS011;21754;48.216;-1.628;2023-04-10T00:59:43;5.13;;;2.00;;
35632;SDS011;21754;48.216;-1.628;2023-04-10T01:02:09;1.65;;;1.55;;
35632;SDS011;21754;48.216;-1.628;2023-04-10T01:04:37;3.10;;;1.80;;
35632;SDS011;21754;48.216;-1.628;2023-04-10T01:09:40;7.45;;;2.05;;
35632;SDS011;21754;48.216;-1.628;2023-04-10T01:12:12;1.80;;;1.70;;
35632;SDS011;21754;48.216;-1.628;2023-04-10T01:17:17;3.33;;;3.03;;
35632;SDS011;21754;48.216;-1.628;2023-04-10T01:20:06;3.25;;;2.70;;
35632;SDS011;21754;48.216;-1.628;2023-04-10T01:28:03;4.05;;;2.05;;
35632;SDS011;21754;48.216;-1.628;2023-04-10T01:30:29;3.88;;;2.97;;
35632;SDS011;21754;48.216;-1.628;2023-04-10T01:32:57;1.50;;;1.40;;
35632;SDS011;21754;48.216;-1.628;2023-04-10T01:35:24;6.20;;;1.67;;
35632;SDS011;21754;48.216;-1.628;2023-04-10T01:37:53;2.67;;;2.08;;
35632;SDS011;21754;48.216;-1.628;2023-04-10T01:40:20;1.55;;;1.45;;
35632;SDS011;21754;48.216;-1.628;2023-04-10T01:42:47;2.60;;;2.13;;
35632;SDS011;21754;48.216;-1.628;2023-04-10T01:45:33;2.58;;;2.13;;
35632;SDS011;21754;48.216;-1.628;2023-04-10T01:47:59;1.58;;;1.48;;
35632;SDS011;21754;48.216;-1.628;2023-04-10T01:50:25;2.63;;;2.00;;
35632;SDS011;21754;48.216;-1.628;2023-04-10T01:52:52;3.53;;;1.80;;
35632;SDS011;21754;48.216;-1.628;2023-04-10T01:55:19;5.18;;;2.40;;
35632;SDS011;21754;48.216;-1.628;2023-04-10T01:57:45;3.63;;;2.00;;
35632;SDS011;21754;48.216;-1.628;2023-04-10T02:00:15;2.95;;;1.88;;
35632;SDS011;21754;48.216;-1.628;2023-04-10T02:02:41;2.38;;;1.90;;
35632;SDS011;21754;48.216;-1.628;2023-04-10T02:05:08;4.97;;;1.85;;
35632;SDS011;21754;48.216;-1.628;2023-04-10T02:10:23;1.95;;;1.80;;
35632;SDS011;21754;48.216;-1.628;2023-04-10T02:12:51;3.92;;;1.77;;
35632;SDS011;21754;48.216;-1.628;2023-04-10T02:15:20;5.93;;;2.00;;
35632;SDS011;21754;48.216;-1.628;2023-04-10T02:17:47;3.17;;;1.80;;
35632;SDS011;21754;48.216;-1.628;2023-04-10T02:20:13;4.20;;;1.77;;
35632;SDS011;21754;48.216;-1.628;2023-04-10T02:22:39;3.38;;;2.13;;
35632;SDS011;21754;48.216;-1.628;2023-04-10T02:25:08;3.95;;;2.08;;
35632;SDS011;21754;48.216;-1.628;2023-04-10T02:27:35;3.30;;;1.95;;
35632;SDS011;21754;48.216;-1.628;2023-04-10T02:30:01;3.00;;;2.10;;
35632;SDS011;21754;48.216;-1.628;2023-04-10T02:32:28;3.42;;;2.33;;
35632;SDS011;21754;48.216;-1.628;2023-04-10T02:34:54;2.47;;;1.90;;
35632;SDS011;21754;48.216;-1.628;2023-04-10T02:37:21;3.13;;;2.03;;
35632;SDS011;21754;48.216;-1.628;2023-04-10T02:39:47;3.80;;;2.60;;
35632;SDS011;21754;48.216;-1.628;2023-04-10T02:42:13;3.30;;;2.10;;
35632;SDS011;21754;48.216;-1.628;2023-04-10T02:44:39;6.35;;;1.70;;
35632;SDS011;21754;48.216;-1.628;2023-04-10T02:47:05;3.47;;;2.13;;
35632;SDS011;21754;48.216;-1.628;2023-04-10T02:49:32;4.00;;;3.33;;
35632;SDS011;21754;48.216;-1.628;2023-04-10T02:52:02;4.95;;;2.92;;
35632;SDS011;21754;48.216;-1.628;2023-04-10T02:54:28;2.33;;;1.50;;
35632;SDS011;21754;48.216;-1.628;2023-04-10T02:56:54;4.20;;;2.88;;
35632;SDS011;21754;48.216;-1.628;2023-04-10T02:59:21;4.13;;;2.08;;
35632;SDS011;21754;48.216;-1.628;2023-04-10T03:01:47;3.25;;;2.33;;
35632;SDS011;21754;48.216;-1.628;2023-04-10T03:04:13;3.00;;;1.75;;
35632;SDS011;21754;48.216;-1.628;2023-04-10T03:06:40;3.00;;;2.15;;
35632;SDS011;21754;48.216;-1.628;2023-04-10T03:09:06;2.45;;;1.90;;
35632;SDS011;21754;48.216;-1.628;2023-04-10T03:11:32;5.25;;;2.97;;
35632;SDS011;21754;48.216;-1.628;2023-04-10T03:13:58;2.88;;;2.08;;
35632;SDS011;21754;48.216;-1.628;2023-04-10T03:16:24;6.10;;;2.00;;
35632;SDS011;21754;48.216;-1.628;2023-04-10T03:18:51;4.97;;;2.42;;
35632;SDS011;21754;48.216;-1.628;2023-04-10T03:21:17;10.15;;;3.05;;
35632;SDS011;21754;48.216;-1.628;2023-04-10T03:23:43;2.38;;;2.17;;
35632;SDS011;21754;48.216;-1.628;2023-04-10T03:26:09;2.97;;;2.55;;
35632;SDS011;21754;48.216;-1.628;2023-04-10T03:28:35;5.22;;;2.40;;
35632;SDS011;21754;48.216;-1.628;2023-04-10T03:31:02;2.20;;;2.10;;
35632;SDS011;21754;48.216;-1.628;2023-04-10T03:33:28;4.40;;;2.83;;
35632;SDS011;21754;48.216;-1.628;2023-04-10T03:35:54;8.20;;;2.42;;
35632;SDS011;21754;48.216;-1.628;2023-04-10T03:38:21;3.53;;;2.35;;
35632;SDS011;21754;48.216;-1.628;2023-04-10T03:40:47;7.55;;;2.83;;
35632;SDS011;21754;48.216;-1.628;2023-04-10T03:43:13;3.45;;;2.05;;
35632;SDS011;21754;48.216;-1.628;2023-04-10T03:45:40;3.75;;;2.30;;
35632;SDS011;21754;48.216;-1.628;2023-04-10T03:48:06;4.60;;;2.15;;
35632;SDS011;21754;48.216;-1.628;2023-04-10T03:50:32;4.78;;;2.03;;
35632;SDS011;21754;48.216;-1.628;2023-04-10T03:52:59;4.55;;;2.35;;
35632;SDS011;21754;48.216;-1.628;2023-04-10T03:55:25;4.20;;;2.50;;
35632;SDS011;21754;48.216;-1.628;2023-04-10T03:57:51;3.20;;;2.47;;
35632;SDS011;21754;48.216;-1.628;2023-04-10T04:00:18;5.70;;;2.95;;
35632;SDS011;21754;48.216;-1.628;2023-04-10T04:02:45;6.57;;;3.67;;
35632;SDS011;21754;48.216;-1.628;2023-04-10T04:05:11;2.78;;;2.38;;
35632;SDS011;21754;48.216;-1.628;2023-04-10T04:07:37;4.47;;;2.80;;
35632;SDS011;21754;48.216;-1.628;2023-04-10T04:10:03;9.32;;;3.20;;
35632;SDS011;21754;48.216;-1.628;2023-04-10T04:12:29;9.60;;;2.92;;
35632;SDS011;21754;48.216;-1.628;2023-04-10T04:14:55;4.13;;;2.70;;
35632;SDS011;21754;48.216;-1.628;2023-04-10T04:17:21;4.00;;;2.70;;
35632;SDS011;21754;48.216;-1.628;2023-04-10T04:19:47;6.82;;;3.05;;
35632;SDS011;21754;48.216;-1.628;2023-04-10T04:22:13;4.30;;;3.30;;
35632;SDS011;21754;48.216;-1.628;2023-04-10T04:24:39;4.13;;;3.10;;
35632;SDS011;21754;48.216;-1.628;2023-04-10T04:27:06;3.85;;;3.50;;
35632;SDS011;21754;48.216;-1.628;2023-04-10T04:29:32;5.18;;;2.80;;
35632;SDS011;21754;48.216;-1.628;2023-04-10T04:31:58;7.97;;;3.15;;
35632;SDS011;21754;48.216;-1.628;2023-04-10T04:34:24;4.78;;;3.13;;
35632;SDS011;21754;48.216;-1.628;2023-04-10T04:36:50;7.47;;;3.05;;
35632;SDS011;21754;48.216;-1.628;2023-04-10T04:39:16;4.15;;;3.10;;
35632;SDS011;21754;48.216;-1.628;2023-04-10T04:41:42;6.75;;;3.80;;
35632;SDS011;21754;48.216;-1.628;2023-04-10T04:44:08;4.05;;;3.47;;
35632;SDS011;21754;48.216;-1.628;2023-04-10T04:46:34;5.25;;;3.20;;
35632;SDS011;21754;48.216;-1.628;2023-04-10T04:49:00;6.15;;;3.42;;
35632;SDS011;21754;48.216;-1.628;2023-04-10T04:51:26;9.70;;;3.75;;
35632;SDS011;21754;48.216;-1.628;2023-04-10T04:53:52;5.28;;;3.47;;
35632;SDS011;21754;48.216;-1.628;2023-04-10T04:56:18;3.88;;;2.95;;
35632;SDS011;21754;48.216;-1.628;2023-04-10T04:58:44;4.63;;;3.70;;
35632;SDS011;21754;48.216;-1.628;2023-04-10T05:01:10;3.78;;;3.33;;
35632;SDS011;21754;48.216;-1.628;2023-04-10T05:03:36;9.35;;;3.67;;
35632;SDS011;21754;48.216;-1.628;2023-04-10T05:06:03;3.53;;;3.10;;
35632;SDS011;21754;48.216;-1.628;2023-04-10T05:08:29;5.65;;;3.72;;
35632;SDS011;21754;48.216;-1.628;2023-04-10T05:10:55;10.32;;;4.10;;
35632;SDS011;21754;48.216;-1.628;2023-04-10T05:13:21;11.02;;;4.22;;
35632;SDS011;21754;48.216;-1.628;2023-04-10T05:15:47;7.38;;;3.05;;
35632;SDS011;21754;48.216;-1.628;2023-04-10T05:18:13;4.78;;;3.90;;
35632;SDS011;21754;48.216;-1.628;2023-04-10T05:20:43;4.30;;;3.90;;
35632;SDS011;21754;48.216;-1.628;2023-04-10T05:23:09;4.53;;;3.60;;
35632;SDS011;21754;48.216;-1.628;2023-04-10T05:25:35;6.22;;;3.45;;
35632;SDS011;21754;48.216;-1.628;2023-04-10T05:28:01;11.38;;;4.57;;
35632;SDS011;21754;48.216;-1.628;2023-04-10T05:30:27;4.38;;;3.83;;
35632;SDS011;21754;48.216;-1.628;2023-04-10T05:32:53;4.53;;;3.53;;
35632;SDS011;21754;48.216;-1.628;2023-04-10T05:35:20;8.25;;;3.80;;
35632;SDS011;21754;48.216;-1.628;2023-04-10T05:37:46;9.82;;;3.88;;
35632;SDS011;21754;48.216;-1.628;2023-04-10T05:40:12;3.80;;;3.47;;
35632;SDS011;21754;48.216;-1.628;2023-04-10T05:42:38;5.78;;;3.90;;
35632;SDS011;21754;48.216;-1.628;2023-04-10T05:45:04;4.60;;;3.97;;
35632;SDS011;21754;48.216;-1.628;2023-04-10T05:47:30;5.22;;;3.75;;
35632;SDS011;21754;48.216;-1.628;2023-04-10T05:49:56;5.32;;;3.63;;
35632;SDS011;21754;48.216;-1.628;2023-04-10T05:52:22;5.05;;;4.00;;
35632;SDS011;21754;48.216;-1.628;2023-04-10T05:54:48;7.60;;;4.15;;
35632;SDS011;21754;48.216;-1.628;2023-04-10T05:57:16;7.72;;;3.47;;
35632;SDS011;21754;48.216;-1.628;2023-04-10T05:59:42;7.60;;;3.53;;
35632;SDS011;21754;48.216;-1.628;2023-04-10T06:02:08;8.05;;;4.05;;
35632;SDS011;21754;48.216;-1.628;2023-04-10T06:04:34;4.78;;;3.55;;
35632;SDS011;21754;48.216;-1.628;2023-04-10T06:07:00;8.30;;;3.72;;
35632;SDS011;21754;48.216;-1.628;2023-04-10T06:09:26;6.43;;;3.33;;
35632;SDS011;21754;48.216;-1.628;2023-04-10T06:11:52;5.70;;;4.65;;
35632;SDS011;21754;48.216;-1.628;2023-04-10T06:14:18;9.63;;;3.83;;
35632;SDS011;21754;48.216;-1.628;2023-04-10T06:16:45;8.52;;;3.42;;
35632;SDS011;21754;48.216;-1.628;2023-04-10T06:19:11;8.45;;;4.28;;
35632;SDS011;21754;48.216;-1.628;2023-04-10T06:21:37;6.15;;;3.50;;
35632;SDS011;21754;48.216;-1.628;2023-04-10T06:24:03;8.27;;;4.65;;
35632;SDS011;21754;48.216;-1.628;2023-04-10T06:26:29;7.63;;;4.18;;
35632;SDS011;21754;48.216;-1.628;2023-04-10T06:28:55;5.43;;;3.90;;
35632;SDS011;21754;48.216;-1.628;2023-04-10T06:31:21;7.43;;;4.03;;
35632;SDS011;21754;48.216;-1.628;2023-04-10T06:33:50;8.38;;;4.40;;
35632;SDS011;21754;48.216;-1.628;2023-04-10T06:36:16;8.05;;;3.78;;
35632;SDS011;21754;48.216;-1.628;2023-04-10T06:38:42;5.53;;;3.92;;
35632;SDS011;21754;48.216;-1.628;2023-04-10T06:41:08;10.18;;;4.22;;
35632;SDS011;21754;48.216;-1.628;2023-04-10T06:43:34;7.05;;;4.32;;
35632;SDS011;21754;48.216;-1.628;2023-04-10T06:46:02;6.63;;;4.35;;
35632;SDS011;21754;48.216;-1.628;2023-04-10T06:48:29;8.85;;;4.05;;
35632;SDS011;21754;48.216;-1.628;2023-04-10T06:50:55;4.15;;;3.75;;
35632;SDS011;21754;48.216;-1.628;2023-04-10T06:53:21;6.90;;;4.25;;
35632;SDS011;21754;48.216;-1.628;2023-04-10T06:55:47;10.90;;;5.05;;
35632;SDS011;21754;48.216;-1.628;2023-04-10T06:58:13;4.78;;;3.40;;
35632;SDS011;21754;48.216;-1.628;2023-04-10T07:00:39;7.60;;;4.43;;
35632;SDS011;21754;48.216;-1.628;2023-04-10T07:03:06;13.43;;;3.80;;
35632;SDS011;21754;48.216;-1.628;2023-04-10T07:05:33;10.18;;;4.13;;
35632;SDS011;21754;48.216;-1.628;2023-04-10T07:07:59;5.70;;;3.88;;
35632;SDS011;21754;48.216;-1.628;2023-04-10T07:10:25;9.23;;;4.38;;
35632;SDS011;21754;48.216;-1.628;2023-04-10T07:12:51;7.28;;;3.78;;
35632;SDS011;21754;48.216;-1.628;2023-04-10T07:15:17;8.13;;;4.50;;
35632;SDS011;21754;48.216;-1.628;2023-04-10T07:17:43;6.78;;;3.78;;
35632;SDS011;21754;48.216;-1.628;2023-04-10T07:20:09;11.57;;;4.93;;
35632;SDS011;21754;48.216;-1.628;2023-04-10T07:22:35;11.10;;;4.55;;
35632;SDS011;21754;48.216;-1.628;2023-04-10T07:25:01;6.95;;;4.00;;
35632;SDS011;21754;48.216;-1.628;2023-04-10T07:27:27;7.22;;;4.57;;
35632;SDS011;21754;48.216;-1.628;2023-04-10T07:29:53;5.50;;;4.18;;
35632;SDS011;21754;48.216;-1.628;2023-04-10T07:32:20;9.35;;;4.43;;
35632;SDS011;21754;48.216;-1.628;2023-04-10T07:34:47;12.05;;;5.30;;
35632;SDS011;21754;48.216;-1.628;2023-04-10T07:37:13;13.13;;;4.43;;
35632;SDS011;21754;48.216;-1.628;2023-04-10T07:39:39;9.38;;;4.35;;
35632;SDS011;21754;48.216;-1.628;2023-04-10T07:42:05;7.00;;;3.97;;
35632;SDS011;21754;48.216;-1.628;2023-04-10T07:44:31;6.55;;;3.90;;
35632;SDS011;21754;48.216;-1.628;2023-04-10T07:46:57;9.65;;;3.47;;
35632;SDS011;21754;48.216;-1.628;2023-04-10T07:49:23;8.50;;;4.25;;
35632;SDS011;21754;48.216;-1.628;2023-04-10T07:51:49;5.70;;;4.00;;
35632;SDS011;21754;48.216;-1.628;2023-04-10T07:54:15;10.18;;;4.03;;
35632;SDS011;21754;48.216;-1.628;2023-04-10T07:56:41;10.27;;;4.93;;
35632;SDS011;21754;48.216;-1.628;2023-04-10T07:59:07;9.52;;;4.55;;
35632;SDS011;21754;48.216;-1.628;2023-04-10T08:01:33;5.05;;;3.83;;
35632;SDS011;21754;48.216;-1.628;2023-04-10T08:03:59;9.25;;;4.35;;
35632;SDS011;21754;48.216;-1.628;2023-04-10T08:06:25;8.50;;;3.88;;
35632;SDS011;21754;48.216;-1.628;2023-04-10T08:08:52;4.70;;;3.42;;
35632;SDS011;21754;48.216;-1.628;2023-04-10T08:13:48;7.20;;;3.70;;
35632;SDS011;21754;48.216;-1.628;2023-04-10T08:16:15;7.65;;;3.72;;
35632;SDS011;21754;48.216;-1.628;2023-04-10T08:18:41;7.57;;;3.53;;
35632;SDS011;21754;48.216;-1.628;2023-04-10T08:21:07;4.65;;;3.45;;
35632;SDS011;21754;48.216;-1.628;2023-04-10T08:23:33;8.88;;;4.20;;
35632;SDS011;21754;48.216;-1.628;2023-04-10T08:25:59;11.90;;;4.95;;
35632;SDS011;21754;48.216;-1.628;2023-04-10T08:28:25;4.93;;;3.38;;
35632;SDS011;21754;48.216;-1.628;2023-04-10T08:30:52;10.25;;;3.75;;
35632;SDS011;21754;48.216;-1.628;2023-04-10T08:33:18;4.18;;;2.63;;
35632;SDS011;21754;48.216;-1.628;2023-04-10T08:35:47;6.18;;;3.50;;
35632;SDS011;21754;48.216;-1.628;2023-04-10T08:38:13;4.70;;;3.60;;
35632;SDS011;21754;48.216;-1.628;2023-04-10T08:40:39;11.38;;;3.83;;
35632;SDS011;21754;48.216;-1.628;2023-04-10T08:43:05;7.57;;;3.72;;
35632;SDS011;21754;48.216;-1.628;2023-04-10T08:45:31;6.97;;;3.65;;
35632;SDS011;21754;48.216;-1.628;2023-04-10T08:47:57;8.60;;;3.10;;
35632;SDS011;21754;48.216;-1.628;2023-04-10T08:50:26;6.50;;;3.08;;
35632;SDS011;21754;48.216;-1.628;2023-04-10T08:52:55;5.90;;;3.70;;
35632;SDS011;21754;48.216;-1.628;2023-04-10T08:55:24;4.88;;;3.17;;
35632;SDS011;21754;48.216;-1.628;2023-04-10T08:57:51;8.70;;;3.83;;
35632;SDS011;21754;48.216;-1.628;2023-04-10T09:00:17;4.38;;;2.90;;
35632;SDS011;21754;48.216;-1.628;2023-04-10T09:02:43;7.32;;;3.50;;
35632;SDS011;21754;48.216;-1.628;2023-04-10T09:05:10;5.57;;;3.47;;
35632;SDS011;21754;48.216;-1.628;2023-04-10T09:07:39;8.55;;;3.10;;
35632;SDS011;21754;48.216;-1.628;2023-04-10T09:10:06;7.63;;;2.53;;
35632;SDS011;21754;48.216;-1.628;2023-04-10T09:12:42;5.60;;;3.05;;
35632;SDS011;21754;48.216;-1.628;2023-04-10T09:15:08;3.50;;;2.17;;
35632;SDS011;21754;48.216;-1.628;2023-04-10T09:17:35;2.35;;;2.05;;
35632;SDS011;21754;48.216;-1.628;2023-04-10T09:20:01;4.65;;;2.60;;
35632;SDS011;21754;48.216;-1.628;2023-04-10T09:22:31;11.00;;;5.32;;
35632;SDS011;21754;48.216;-1.628;2023-04-10T09:24:57;5.75;;;2.42;;
35632;SDS011;21754;48.216;-1.628;2023-04-10T09:27:30;10.00;;;2.85;;
35632;SDS011;21754;48.216;-1.628;2023-04-10T09:29:57;7.32;;;2.60;;
35632;SDS011;21754;48.216;-1.628;2023-04-10T09:32:45;6.47;;;3.35;;
35632;SDS011;21754;48.216;-1.628;2023-04-10T09:35:13;10.38;;;2.58;;
35632;SDS011;21754;48.216;-1.628;2023-04-10T09:37:40;4.17;;;2.50;;
35632;SDS011;21754;48.216;-1.628;2023-04-10T09:40:19;7.05;;;2.20;;
35632;SDS011;21754;48.216;-1.628;2023-04-10T09:42:45;6.85;;;2.28;;
35632;SDS011;21754;48.216;-1.628;2023-04-10T09:45:11;6.60;;;2.17;;
35632;SDS011;21754;48.216;-1.628;2023-04-10T09:47:37;1.95;;;1.60;;
35632;SDS011;21754;48.216;-1.628;2023-04-10T09:50:03;7.10;;;2.95;;
35632;SDS011;21754;48.216;-1.628;2023-04-10T09:52:31;3.42;;;1.85;;
35632;SDS011;21754;48.216;-1.628;2023-04-10T09:55:01;5.43;;;1.92;;
35632;SDS011;21754;48.216;-1.628;2023-04-10T09:57:28;7.00;;;2.45;;
35632;SDS011;21754;48.216;-1.628;2023-04-10T09:59:55;2.08;;;1.30;;
35632;SDS011;21754;48.216;-1.628;2023-04-10T10:02:22;13.77;;;2.05;;
35632;SDS011;21754;48.216;-1.628;2023-04-10T10:04:49;3.72;;;2.05;;
35632;SDS011;21754;48.216;-1.628;2023-04-10T10:07:17;6.03;;;1.65;;
35632;SDS011;21754;48.216;-1.628;2023-04-10T10:09:44;11.57;;;2.50;;
35632;SDS011;21754;48.216;-1.628;2023-04-10T10:12:10;6.93;;;2.30;;
35632;SDS011;21754;48.216;-1.628;2023-04-10T10:17:23;5.05;;;1.58;;
35632;SDS011;21754;48.216;-1.628;2023-04-10T10:20:01;5.82;;;1.48;;
35632;SDS011;21754;48.216;-1.628;2023-04-10T10:22:29;7.93;;;1.73;;
35632;SDS011;21754;48.216;-1.628;2023-04-10T10:24:55;7.55;;;2.10;;
35632;SDS011;21754;48.216;-1.628;2023-04-10T10:27:21;6.93;;;3.05;;
35632;SDS011;21754;48.216;-1.628;2023-04-10T10:29:48;3.95;;;1.88;;
35632;SDS011;21754;48.216;-1.628;2023-04-10T10:32:16;3.42;;;1.85;;
35632;SDS011;21754;48.216;-1.628;2023-04-10T10:34:43;8.57;;;1.30;;
35632;SDS011;21754;48.216;-1.628;2023-04-10T10:37:10;3.22;;;1.48;;
35632;SDS011;21754;48.216;-1.628;2023-04-10T10:42:52;6.30;;;2.90;;
35632;SDS011;21754;48.216;-1.628;2023-04-10T10:45:10;6.88;;;1.20;;
35632;SDS011;21754;48.216;-1.628;2023-04-10T10:47:39;4.40;;;1.42;;
35632;SDS011;21754;48.216;-1.628;2023-04-10T10:50:05;2.55;;;1.27;;
35632;SDS011;21754;48.216;-1.628;2023-04-10T10:57:49;1.90;;;1.23;;
35632;SDS011;21754;48.216;-1.628;2023-04-10T11:00:19;5.35;;;1.45;;
35632;SDS011;21754;48.216;-1.628;2023-04-10T11:02:59;3.05;;;1.38;;
35632;SDS011;21754;48.216;-1.628;2023-04-10T11:06:05;8.68;;;4.28;;
35632;SDS011;21754;48.216;-1.628;2023-04-10T11:13:33;2.00;;;1.80;;
35632;SDS011;21754;48.216;-1.628;2023-04-10T11:16:00;3.80;;;1.50;;
35632;SDS011;21754;48.216;-1.628;2023-04-10T11:29:00;1.40;;;1.30;;
35632;SDS011;21754;48.216;-1.628;2023-04-10T11:31:26;3.15;;;1.77;;
35632;SDS011;21754;48.216;-1.628;2023-04-10T11:36:23;2.10;;;1.10;;
35632;SDS011;21754;48.216;-1.628;2023-04-10T11:38:59;1.77;;;1.42;;
35632;SDS011;21754;48.216;-1.628;2023-04-10T11:41:30;1.80;;;1.52;;
35632;SDS011;21754;48.216;-1.628;2023-04-10T11:43:57;2.60;;;1.33;;
35632;SDS011;21754;48.216;-1.628;2023-04-10T11:46:23;1.85;;;1.02;;
35632;SDS011;21754;48.216;-1.628;2023-04-10T11:48:59;2.88;;;1.08;;
35632;SDS011;21754;48.216;-1.628;2023-04-10T11:51:26;1.23;;;0.95;;
35632;SDS011;21754;48.216;-1.628;2023-04-10T11:54:08;1.75;;;0.98;;
35632;SDS011;21754;48.216;-1.628;2023-04-10T11:56:35;1.17;;;0.75;;
35632;SDS011;21754;48.216;-1.628;2023-04-10T11:59:01;0.60;;;0.60;;
35632;SDS011;21754;48.216;-1.628;2023-04-10T12:01:31;1.05;;;0.60;;
35632;SDS011;21754;48.216;-1.628;2023-04-10T12:03:57;0.70;;;0.70;;
35632;SDS011;21754;48.216;-1.628;2023-04-10T12:06:24;1.27;;;1.17;;
35632;SDS011;21754;48.216;-1.628;2023-04-10T12:08:51;0.68;;;0.68;;
35632;SDS011;21754;48.216;-1.628;2023-04-10T12:11:18;1.00;;;0.73;;
35632;SDS011;21754;48.216;-1.628;2023-04-10T12:13:45;2.53;;;0.50;;
35632;SDS011;21754;48.216;-1.628;2023-04-10T12:16:12;0.63;;;0.63;;
35632;SDS011;21754;48.216;-1.628;2023-04-10T12:18:38;0.70;;;0.70;;
35632;SDS011;21754;48.216;-1.628;2023-04-10T12:21:04;0.93;;;0.93;;
35632;SDS011;21754;48.216;-1.628;2023-04-10T12:23:31;0.70;;;0.70;;
35632;SDS011;21754;48.216;-1.628;2023-04-10T12:28:35;0.68;;;0.68;;
35632;SDS011;21754;48.216;-1.628;2023-04-10T12:31:02;1.60;;;0.77;;
35632;SDS011;21754;48.216;-1.628;2023-04-10T12:33:28;0.60;;;0.60;;
35632;SDS011;21754;48.216;-1.628;2023-04-10T12:35:54;1.40;;;0.80;;
35632;SDS011;21754;48.216;-1.628;2023-04-10T12:38:36;0.73;;;0.60;;
35632;SDS011;21754;48.216;-1.628;2023-04-10T12:41:02;1.90;;;0.70;;
35632;SDS011;21754;48.216;-1.628;2023-04-10T12:43:32;1.02;;;0.57;;
35632;SDS011;21754;48.216;-1.628;2023-04-10T12:45:58;1.60;;;0.68;;
35632;SDS011;21754;48.216;-1.628;2023-04-10T12:48:24;0.63;;;0.63;;
35632;SDS011;21754;48.216;-1.628;2023-04-10T12:50:51;2.17;;;0.82;;
35632;SDS011;21754;48.216;-1.628;2023-04-10T12:53:16;3.42;;;0.65;;
35632;SDS011;21754;48.216;-1.628;2023-04-10T12:58:44;0.90;;;0.80;;
35632;SDS011;21754;48.216;-1.628;2023-04-10T13:01:11;1.30;;;0.73;;
35632;SDS011;21754;48.216;-1.628;2023-04-10T13:03:38;0.63;;;0.63;;
35632;SDS011;21754;48.216;-1.628;2023-04-10T13:06:05;0.95;;;0.63;;
35632;SDS011;21754;48.216;-1.628;2023-04-10T13:08:31;1.33;;;0.70;;
35632;SDS011;21754;48.216;-1.628;2023-04-10T13:10:58;1.75;;;0.70;;
35632;SDS011;21754;48.216;-1.628;2023-04-10T13:13:28;2.42;;;1.15;;
35632;SDS011;21754;48.216;-1.628;2023-04-10T13:15:57;1.42;;;0.90;;
35632;SDS011;21754;48.216;-1.628;2023-04-10T13:18:24;3.17;;;1.58;;
35632;SDS011;21754;48.216;-1.628;2023-04-10T13:20:50;1.10;;;0.77;;
35632;SDS011;21754;48.216;-1.628;2023-04-10T13:23:16;1.38;;;1.27;;
35632;SDS011;21754;48.216;-1.628;2023-04-10T13:25:42;2.90;;;0.93;;
35632;SDS011;21754;48.216;-1.628;2023-04-10T13:28:08;2.63;;;0.77;;
35632;SDS011;21754;48.216;-1.628;2023-04-10T13:30:38;3.08;;;0.90;;
35632;SDS011;21754;48.216;-1.628;2023-04-10T13:33:05;3.40;;;1.08;;
35632;SDS011;21754;48.216;-1.628;2023-04-10T13:35:31;2.17;;;0.82;;
35632;SDS011;21754;48.216;-1.628;2023-04-10T13:37:57;2.38;;;1.30;;
35632;SDS011;21754;48.216;-1.628;2023-04-10T13:40:23;2.78;;;1.13;;
35632;SDS011;21754;48.216;-1.628;2023-04-10T13:42:49;4.50;;;1.13;;
35632;SDS011;21754;48.216;-1.628;2023-04-10T13:45:15;1.45;;;1.27;;
35632;SDS011;21754;48.216;-1.628;2023-04-10T13:47:41;4.22;;;1.10;;
35632;SDS011;21754;48.216;-1.628;2023-04-10T13:50:07;4.35;;;1.35;;
35632;SDS011;21754;48.216;-1.628;2023-04-10T13:52:34;1.80;;;1.08;;
35632;SDS011;21754;48.216;-1.628;2023-04-10T13:55:00;3.47;;;1.38;;
35632;SDS011;21754;48.216;-1.628;2023-04-10T13:57:26;3.85;;;1.00;;
35632;SDS011;21754;48.216;-1.628;2023-04-10T13:59:52;3.03;;;1.40;;
35632;SDS011;21754;48.216;-1.628;2023-04-10T14:02:18;2.15;;;1.48;;
35632;SDS011;21754;48.216;-1.628;2023-04-10T14:04:44;2.67;;;1.83;;
35632;SDS011;21754;48.216;-1.628;2023-04-10T14:07:11;5.72;;;1.23;;
35632;SDS011;21754;48.216;-1.628;2023-04-10T14:09:37;1.70;;;1.27;;
35632;SDS011;21754;48.216;-1.628;2023-04-10T14:12:03;1.52;;;1.40;;
35632;SDS011;21754;48.216;-1.628;2023-04-10T14:14:30;3.70;;;1.30;;
35632;SDS011;21754;48.216;-1.628;2023-04-10T14:16:56;3.00;;;1.42;;
35632;SDS011;21754;48.216;-1.628;2023-04-10T14:19:22;1.40;;;1.25;;
35632;SDS011;21754;48.216;-1.628;2023-04-10T14:21:48;3.72;;;1.50;;
35632;SDS011;21754;48.216;-1.628;2023-04-10T14:24:14;3.50;;;1.70;;
35632;SDS011;21754;48.216;-1.628;2023-04-10T14:26:40;6.55;;;1.27;;
35632;SDS011;21754;48.216;-1.628;2023-04-10T14:29:06;5.72;;;2.53;;
35632;SDS011;21754;48.216;-1.628;2023-04-10T14:31:33;12.23;;;1.77;;
35632;SDS011;21754;48.216;-1.628;2023-04-10T14:33:59;6.50;;;1.88;;
35632;SDS011;21754;48.216;-1.628;2023-04-10T14:36:25;17.02;;;2.15;;
35632;SDS011;21754;48.216;-1.628;2023-04-10T14:38:51;3.88;;;1.73;;
35632;SDS011;21754;48.216;-1.628;2023-04-10T14:41:18;5.80;;;2.22;;
35632;SDS011;21754;48.216;-1.628;2023-04-10T14:43:44;5.38;;;1.30;;
35632;SDS011;21754;48.216;-1.628;2023-04-10T14:46:10;1.65;;;1.55;;
35632;SDS011;21754;48.216;-1.628;2023-04-10T14:48:36;2.95;;;2.38;;
35632;SDS011;21754;48.216;-1.628;2023-04-10T14:51:02;6.45;;;1.40;;
35632;SDS011;21754;48.216;-1.628;2023-04-10T14:53:29;3.85;;;2.35;;
35632;SDS011;21754;48.216;-1.628;2023-04-10T14:55:55;21.17;;;2.00;;
35632;SDS011;21754;48.216;-1.628;2023-04-10T14:58:21;2.72;;;1.35;;
35632;SDS011;21754;48.216;-1.628;2023-04-10T15:00:47;2.85;;;1.67;;
35632;SDS011;21754;48.216;-1.628;2023-04-10T15:03:14;5.20;;;1.52;;
35632;SDS011;21754;48.216;-1.628;2023-04-10T15:05:40;5.28;;;1.90;;
35632;SDS011;21754;48.216;-1.628;2023-04-10T15:08:06;13.20;;;2.70;;
35632;SDS011;21754;48.216;-1.628;2023-04-10T15:10:32;8.07;;;2.10;;
35632;SDS011;21754;48.216;-1.628;2023-04-10T15:12:58;10.18;;;2.22;;
35632;SDS011;21754;48.216;-1.628;2023-04-10T15:15:24;10.60;;;2.60;;
35632;SDS011;21754;48.216;-1.628;2023-04-10T15:17:50;5.20;;;2.80;;
35632;SDS011;21754;48.216;-1.628;2023-04-10T15:20:16;9.32;;;2.40;;
35632;SDS011;21754;48.216;-1.628;2023-04-10T15:22:42;6.57;;;1.88;;